createdAt,value
2023-01-19T00:00:56.730Z,98310.03
2023-01-19T00:03:23.794Z,98358.34
2023-01-19T00:05:50.368Z,98353.22
2023-01-19T00:08:17.716Z,98356.97
2023-01-19T00:10:50.254Z,98352.19
2023-01-19T00:13:17.152Z,98357.72
2023-01-19T00:15:44.220Z,98333.00
2023-01-19T00:18:13.857Z,98354.72
2023-01-19T00:20:40.781Z,98322.03
2023-01-19T00:23:07.769Z,98317.50
2023-01-19T00:25:35.492Z,98362.06
2023-01-19T00:28:02.169Z,98311.00
2023-01-19T00:30:29.289Z,98368.75
2023-01-19T00:32:56.231Z,98404.50
2023-01-19T00:35:23.135Z,98416.22
2023-01-19T00:37:53.093Z,98411.25
2023-01-19T00:40:20.495Z,98438.88
2023-01-19T00:42:53.149Z,98441.69
2023-01-19T00:45:23.494Z,98457.91
2023-01-19T00:47:51.447Z,98468.56
2023-01-19T00:50:18.221Z,98463.81
2023-01-19T00:52:44.980Z,98526.72
2023-01-19T00:55:14.234Z,98525.72
2023-01-19T00:57:42.024Z,98533.81
2023-01-19T01:00:15.977Z,98557.38
2023-01-19T01:02:44.583Z,98575.63
2023-01-19T01:05:11.646Z,98590.84
2023-01-19T01:07:38.636Z,98588.91
2023-01-19T01:10:05.774Z,98605.91
2023-01-19T01:12:32.761Z,98606.53
2023-01-19T01:14:59.588Z,98614.44
2023-01-19T01:17:26.382Z,98614.25
2023-01-19T01:19:53.148Z,98596.84
2023-01-19T01:22:19.769Z,98489.38
2023-01-19T01:24:46.301Z,98507.94
2023-01-19T01:27:13.228Z,98549.00
2023-01-19T01:29:39.874Z,98539.09
2023-01-19T01:32:07.156Z,98519.72
2023-01-19T01:34:33.962Z,98508.41
2023-01-19T01:37:01.035Z,98502.22
2023-01-19T01:39:29.000Z,98492.91
2023-01-19T01:41:57.541Z,98475.53
2023-01-19T01:44:49.203Z,98456.19
2023-01-19T01:47:43.801Z,98415.72
2023-01-19T01:50:20.946Z,98425.78
2023-01-19T01:53:06.319Z,98407.59
2023-01-19T01:55:41.612Z,98395.56
2023-01-19T01:58:10.286Z,98309.59
2023-01-19T02:00:39.723Z,98250.00
2023-01-19T02:03:06.305Z,98226.47
2023-01-19T02:05:34.985Z,98225.81
2023-01-19T02:08:22.890Z,98281.09
2023-01-19T02:10:49.693Z,98251.91
2023-01-19T02:13:16.523Z,98277.53
2023-01-19T02:15:43.062Z,98224.59
2023-01-19T02:18:09.586Z,98197.03
2023-01-19T02:20:37.189Z,98125.53
2023-01-19T02:23:07.650Z,98018.19
2023-01-19T02:25:34.475Z,98077.63
2023-01-19T02:28:02.042Z,98063.44
2023-01-19T02:30:28.839Z,98050.31
2023-01-19T02:32:55.412Z,97994.06
2023-01-19T02:35:22.914Z,98076.38
2023-01-19T02:37:49.870Z,97970.81
2023-01-19T02:40:19.020Z,97988.88
2023-01-19T02:42:50.244Z,97953.13
2023-01-19T02:45:22.868Z,97971.09
2023-01-19T02:47:52.336Z,97892.84
2023-01-19T02:50:37.392Z,97949.09
2023-01-19T02:53:38.642Z,97899.13
2023-01-19T02:56:26.176Z,97918.75
2023-01-19T02:59:06.551Z,97858.63
2023-01-19T03:01:42.332Z,97885.91
2023-01-19T03:04:28.504Z,97710.44
2023-01-19T03:07:14.892Z,97791.34
2023-01-19T03:10:09.031Z,97763.03
2023-01-19T03:12:59.448Z,97611.97
2023-01-19T03:15:36.434Z,97550.06
2023-01-19T03:18:06.406Z,97700.25
2023-01-19T03:20:36.583Z,97647.25
2023-01-19T03:23:07.639Z,97662.03
2023-01-19T03:25:41.601Z,97654.56
2023-01-19T03:28:09.284Z,97557.50
2023-01-19T03:30:43.211Z,97566.66
2023-01-19T03:33:19.197Z,97485.31
2023-01-19T03:35:55.128Z,97396.09
2023-01-19T03:38:26.195Z,97288.44
2023-01-19T03:40:58.753Z,97434.38
2023-01-19T03:43:27.621Z,97377.09
2023-01-19T03:45:56.812Z,97313.00
2023-01-19T03:48:25.347Z,97289.31
2023-01-19T03:50:52.559Z,97439.72
2023-01-19T03:53:20.622Z,97296.94
2023-01-19T03:55:50.445Z,97473.53
2023-01-19T03:58:17.311Z,97259.38
2023-01-19T04:00:44.007Z,97381.13
2023-01-19T04:03:15.155Z,97282.56
2023-01-19T04:05:42.243Z,97439.16
2023-01-19T04:08:11.752Z,97415.38
2023-01-19T04:10:45.987Z,97353.34
2023-01-19T04:13:24.523Z,97343.03
2023-01-19T04:16:11.835Z,97228.28
2023-01-19T04:21:26.582Z,97190.63
2023-01-19T04:26:29.913Z,97333.84
2023-01-19T04:28:56.370Z,97367.63
2023-01-19T04:31:22.810Z,97359.69
2023-01-19T04:33:49.271Z,97316.50
2023-01-19T04:36:15.727Z,97364.28
2023-01-19T04:38:42.152Z,97385.03
2023-01-19T04:41:08.751Z,97381.13
2023-01-19T04:43:35.246Z,97378.66
2023-01-19T04:46:01.723Z,97343.63
2023-01-19T04:48:28.128Z,97331.69
2023-01-19T04:50:54.589Z,97394.19
2023-01-19T04:53:21.119Z,97393.41
2023-01-19T04:55:47.567Z,97402.22
2023-01-19T04:58:14.016Z,97437.91
2023-01-19T05:00:40.451Z,97385.13
2023-01-19T05:03:06.915Z,97310.72
2023-01-19T05:05:33.379Z,97302.94
2023-01-19T05:08:00.040Z,97350.69
2023-01-19T05:10:26.594Z,97271.94
2023-01-19T05:12:53.074Z,97346.34
2023-01-19T05:15:19.535Z,97362.84
2023-01-19T05:17:46.572Z,97344.88
2023-01-19T05:20:16.030Z,97319.66
2023-01-19T05:22:43.583Z,97250.19
2023-01-19T05:25:10.070Z,97228.22
2023-01-19T05:27:37.203Z,97308.16
2023-01-19T05:30:04.561Z,97300.88
2023-01-19T05:32:31.138Z,97220.28
2023-01-19T05:34:57.747Z,97259.38
2023-01-19T05:37:24.300Z,97288.94
2023-01-19T05:39:50.925Z,97286.66
2023-01-19T05:42:17.355Z,97265.44
2023-01-19T05:44:43.859Z,97208.34
2023-01-19T05:47:10.319Z,97208.03
2023-01-19T05:49:36.767Z,97146.09
2023-01-19T05:52:03.274Z,97205.38
2023-01-19T05:54:29.701Z,97123.88
2023-01-19T05:56:56.122Z,97119.50
2023-01-19T05:59:22.586Z,97190.00
2023-01-19T06:01:49.059Z,97203.91
2023-01-19T06:04:15.574Z,97188.03
2023-01-19T06:06:42.013Z,97161.53
2023-01-19T06:09:08.795Z,97228.50
2023-01-19T06:11:35.272Z,97149.09
2023-01-19T06:14:01.678Z,97141.91
2023-01-19T06:16:28.247Z,97201.41
2023-01-19T06:18:54.769Z,97214.00
2023-01-19T06:21:21.616Z,97225.84
2023-01-19T06:23:48.037Z,97228.56
2023-01-19T06:26:14.432Z,97230.59
2023-01-19T06:28:40.996Z,97238.88
2023-01-19T06:31:07.492Z,97250.84
2023-01-19T06:33:33.963Z,97210.78
2023-01-19T06:36:00.833Z,97266.09
2023-01-19T06:38:28.041Z,97261.50
2023-01-19T06:40:57.032Z,97196.97
2023-01-19T06:43:23.555Z,97248.75
2023-01-19T06:45:50.051Z,97278.88
2023-01-19T06:48:16.910Z,97274.28
2023-01-19T06:50:45.760Z,97198.31
2023-01-19T06:53:12.422Z,97260.59
2023-01-19T06:55:38.926Z,97267.09
2023-01-19T06:58:05.738Z,97250.88
2023-01-19T07:00:32.221Z,97229.69
2023-01-19T07:02:59.061Z,97189.00
2023-01-19T07:05:25.799Z,97184.00
2023-01-19T07:07:53.770Z,97242.88
2023-01-19T07:10:20.271Z,97244.72
2023-01-19T07:12:47.192Z,97240.97
2023-01-19T07:15:15.393Z,97243.97
2023-01-19T07:17:41.951Z,97267.53
2023-01-19T07:20:10.493Z,97247.19
2023-01-19T07:22:36.935Z,97260.53
2023-01-19T07:25:03.611Z,97184.00
2023-01-19T07:27:30.075Z,97237.22
2023-01-19T07:29:56.668Z,97283.16
2023-01-19T07:32:23.168Z,97245.47
2023-01-19T07:34:49.644Z,97274.50
2023-01-19T07:37:16.095Z,97279.09
2023-01-19T07:39:42.562Z,97246.41
2023-01-19T07:42:09.013Z,97267.47
2023-01-19T07:44:35.611Z,97236.66
2023-01-19T07:47:02.099Z,97312.94
2023-01-19T07:49:28.582Z,97349.09
2023-01-19T07:51:55.036Z,97272.38
2023-01-19T07:54:22.014Z,97368.25
2023-01-19T07:56:48.542Z,97379.91
2023-01-19T07:59:15.020Z,97382.03
2023-01-19T08:01:41.583Z,97417.63
2023-01-19T08:04:08.295Z,97355.91
2023-01-19T08:06:36.898Z,97441.84
2023-01-19T08:09:04.317Z,97424.53
2023-01-19T08:11:31.353Z,97392.81
2023-01-19T08:13:57.872Z,97489.50
2023-01-19T08:16:24.510Z,97494.28
2023-01-19T08:18:50.943Z,97518.53
2023-01-19T08:21:17.440Z,97499.69
2023-01-19T08:23:44.005Z,97512.06
2023-01-19T08:26:20.193Z,97441.59
2023-01-19T08:28:47.109Z,97515.84
2023-01-19T08:31:20.456Z,97506.59
2023-01-19T08:33:48.931Z,97508.94
2023-01-19T08:36:15.399Z,97495.53
2023-01-19T08:38:41.866Z,97498.22
2023-01-19T08:41:08.292Z,97481.81
2023-01-19T08:43:35.472Z,97505.81
2023-01-19T08:46:01.964Z,97491.22
2023-01-19T08:48:28.473Z,97475.88
2023-01-19T08:50:54.987Z,97489.41
2023-01-19T08:53:21.719Z,97478.03
2023-01-19T08:55:48.212Z,97430.69
2023-01-19T08:58:15.141Z,97466.75
2023-01-19T09:00:41.789Z,97402.44
2023-01-19T09:03:11.554Z,97462.28
2023-01-19T09:05:40.095Z,97445.00
2023-01-19T09:08:09.478Z,97447.41
2023-01-19T09:10:37.268Z,97463.41
2023-01-19T09:13:05.389Z,97471.97
2023-01-19T09:15:32.232Z,97467.41
2023-01-19T09:17:59.004Z,97454.59
2023-01-19T09:20:25.844Z,97422.44
2023-01-19T09:22:52.394Z,97476.88
2023-01-19T09:25:18.848Z,97421.09
2023-01-19T09:27:45.235Z,97431.00
2023-01-19T09:30:12.475Z,97447.19
2023-01-19T09:32:38.899Z,97470.16
2023-01-19T09:35:05.925Z,97415.03
2023-01-19T09:37:32.339Z,97484.59
2023-01-19T09:39:58.777Z,97455.78
2023-01-19T09:42:44.448Z,97471.47
2023-01-19T09:45:31.225Z,97418.31
2023-01-19T09:48:00.974Z,97450.88
2023-01-19T09:50:34.064Z,97446.44
2023-01-19T09:53:15.112Z,97457.34
2023-01-19T09:55:42.196Z,97450.19
2023-01-19T09:58:16.799Z,97388.84
2023-01-19T10:00:52.648Z,97437.66
2023-01-19T10:03:19.202Z,97400.78
2023-01-19T10:06:01.287Z,97388.22
2023-01-19T10:08:30.740Z,97462.44
2023-01-19T10:10:58.414Z,97404.63
2023-01-19T10:13:49.736Z,97439.84
2023-01-19T10:16:50.879Z,97362.78
2023-01-19T10:19:35.748Z,97325.00
2023-01-19T10:22:13.626Z,97292.13
2023-01-19T10:24:43.295Z,97292.09
2023-01-19T10:27:17.357Z,97328.31
2023-01-19T10:29:45.067Z,97417.34
2023-01-19T10:32:13.552Z,97522.59
2023-01-19T10:34:40.664Z,97582.88
2023-01-19T10:37:37.762Z,97707.63
2023-01-19T10:40:10.185Z,97797.97
2023-01-19T10:42:39.018Z,97767.63
2023-01-19T10:45:17.559Z,97838.13
2023-01-19T10:47:46.179Z,97879.41
2023-01-19T10:50:30.236Z,97954.94
2023-01-19T10:53:00.310Z,98053.66
2023-01-19T10:55:39.590Z,98118.00
2023-01-19T10:58:25.728Z,98235.16
2023-01-19T11:00:52.343Z,98283.03
2023-01-19T11:03:30.283Z,98239.22
2023-01-19T11:06:21.215Z,98369.38
2023-01-19T11:08:49.356Z,98376.75
2023-01-19T11:11:15.837Z,98392.38
2023-01-19T11:13:43.081Z,98503.28
2023-01-19T11:16:24.811Z,98535.63
2023-01-19T11:18:56.416Z,98590.16
2023-01-19T11:21:26.068Z,98666.63
2023-01-19T11:23:59.124Z,98672.13
2023-01-19T11:26:29.181Z,98661.19
2023-01-19T11:28:58.604Z,98730.03
2023-01-19T11:31:27.884Z,98756.63
2023-01-19T11:33:57.029Z,98714.41
2023-01-19T11:36:26.741Z,98881.84
2023-01-19T11:38:59.535Z,98963.16
2023-01-19T11:41:35.492Z,99045.13
2023-01-19T11:44:26.402Z,99039.06
2023-01-19T11:46:59.069Z,99036.56
2023-01-19T11:49:43.838Z,99084.31
2023-01-19T11:52:19.399Z,99111.63
2023-01-19T11:54:54.864Z,99108.47
2023-01-19T11:57:21.480Z,99113.75
2023-01-19T11:59:50.727Z,99110.88
2023-01-19T12:02:30.309Z,99113.50
2023-01-19T12:05:01.578Z,99127.72
2023-01-19T12:07:35.192Z,99125.16
2023-01-19T12:10:24.237Z,99161.50
2023-01-19T12:12:51.992Z,99255.09
2023-01-19T12:15:30.985Z,99316.03
2023-01-19T12:18:00.962Z,99504.06
2023-01-19T12:20:36.481Z,99556.66
2023-01-19T12:23:24.318Z,99723.97
2023-01-19T12:26:03.048Z,99812.78
2023-01-19T12:28:32.759Z,99735.63
2023-01-19T12:31:01.066Z,99694.75
2023-01-19T12:33:40.649Z,99585.00
2023-01-19T12:36:32.075Z,99485.75
2023-01-19T12:39:19.272Z,99453.88
2023-01-19T12:41:46.191Z,99348.16
2023-01-19T12:44:12.558Z,99384.06
2023-01-19T12:46:40.637Z,99367.88
2023-01-19T12:49:11.286Z,99461.53
2023-01-19T12:51:38.066Z,99554.94
2023-01-19T12:54:08.439Z,99608.56
2023-01-19T12:56:37.833Z,99607.56
2023-01-19T12:59:05.275Z,99588.00
2023-01-19T13:01:31.960Z,99648.59
2023-01-19T13:04:26.341Z,99681.84
2023-01-19T13:06:52.777Z,99795.47
2023-01-19T13:09:35.260Z,99856.28
2023-01-19T13:12:14.782Z,99945.19
2023-01-19T13:14:43.112Z,99876.66
2023-01-19T13:17:21.577Z,99845.47
2023-01-19T13:19:54.653Z,99889.22
2023-01-19T13:22:49.898Z,99871.25
2023-01-19T13:25:32.089Z,99865.50
2023-01-19T13:27:59.106Z,99934.13
2023-01-19T13:30:28.870Z,99939.34
2023-01-19T13:33:09.192Z,99987.94
2023-01-19T13:35:35.885Z,99948.94
2023-01-19T13:38:04.225Z,99931.63
2023-01-19T13:40:37.914Z,99862.16
2023-01-19T13:43:14.741Z,99800.84
2023-01-19T13:45:41.944Z,99728.19
2023-01-19T13:48:17.151Z,99728.34
2023-01-19T13:51:00.592Z,99641.28
2023-01-19T13:53:27.099Z,99708.97
2023-01-19T13:56:20.517Z,99751.78
2023-01-19T13:59:00.464Z,99854.81
2023-01-19T14:01:29.276Z,99944.69
2023-01-19T14:03:56.273Z,99959.72
2023-01-19T14:06:31.767Z,100058.31
2023-01-19T14:09:19.842Z,99973.78
2023-01-19T14:12:03.532Z,99969.38
2023-01-19T14:14:30.166Z,100022.69
2023-01-19T14:16:56.958Z,100036.34
2023-01-19T14:19:23.509Z,100004.00
2023-01-19T14:22:04.489Z,100024.03
2023-01-19T14:24:31.356Z,100029.84
2023-01-19T14:27:10.272Z,100013.72
2023-01-19T14:29:37.195Z,100024.25
2023-01-19T14:32:15.812Z,100003.91
2023-01-19T14:34:42.304Z,100006.41
2023-01-19T14:37:28.040Z,99954.31
2023-01-19T14:40:21.769Z,99902.97
2023-01-19T14:42:58.828Z,99855.78
2023-01-19T14:45:30.182Z,99807.78
2023-01-19T14:48:17.984Z,99748.59
2023-01-19T14:51:02.085Z,99610.94
2023-01-19T14:53:37.085Z,99645.13
2023-01-19T14:56:05.438Z,99546.41
2023-01-19T14:58:34.858Z,99549.75
2023-01-19T15:01:02.105Z,99504.59
2023-01-19T15:03:42.889Z,99454.81
2023-01-19T15:06:14.655Z,99518.16
2023-01-19T15:08:41.477Z,99439.34
2023-01-19T15:11:27.762Z,99503.25
2023-01-19T15:13:54.267Z,99500.97
2023-01-19T15:16:21.660Z,99471.16
2023-01-19T15:18:48.116Z,99429.38
2023-01-19T15:21:16.472Z,99457.06
2023-01-19T15:23:42.906Z,99439.81
2023-01-19T15:26:15.778Z,99429.81
2023-01-19T15:28:42.581Z,99423.50
2023-01-19T15:31:15.084Z,99418.69
2023-01-19T15:33:41.537Z,99398.13
2023-01-19T15:36:17.811Z,99415.72
2023-01-19T15:38:45.134Z,99389.09
2023-01-19T15:41:23.726Z,99393.84
2023-01-19T15:43:50.718Z,99332.22
2023-01-19T15:46:19.079Z,99375.78
2023-01-19T15:48:45.513Z,99322.34
2023-01-19T15:51:17.369Z,99340.19
2023-01-19T15:53:44.545Z,99299.53
2023-01-19T15:56:15.785Z,99331.38
2023-01-19T15:58:42.914Z,99296.84
2023-01-19T16:01:14.644Z,99207.59
2023-01-19T16:03:41.792Z,99192.88
2023-01-19T16:06:09.499Z,99250.56
2023-01-19T16:08:37.236Z,99252.81
2023-01-19T16:11:09.101Z,99175.84
2023-01-19T16:13:36.053Z,99175.25
2023-01-19T16:16:23.707Z,99176.72
2023-01-19T16:18:50.441Z,99164.50
2023-01-19T16:21:17.267Z,99154.78
2023-01-19T16:23:44.072Z,99070.16
2023-01-19T16:26:34.936Z,99045.13
2023-01-19T16:29:06.883Z,99110.50
2023-01-19T16:31:33.338Z,99070.88
2023-01-19T16:33:59.787Z,99068.84
2023-01-19T16:36:31.754Z,99061.19
2023-01-19T16:39:00.101Z,99071.03
2023-01-19T16:41:26.644Z,99039.59
2023-01-19T16:43:54.195Z,98967.97
2023-01-19T16:46:23.583Z,99041.19
2023-01-19T16:48:51.038Z,98981.75
2023-01-19T16:51:17.918Z,98991.91
2023-01-19T16:53:45.377Z,98966.97
2023-01-19T16:56:14.219Z,98891.59
2023-01-19T16:58:41.331Z,98853.97
2023-01-19T17:01:19.744Z,98939.41
2023-01-19T17:03:46.944Z,98848.44
2023-01-19T17:06:16.863Z,98833.63
2023-01-19T17:08:43.641Z,98799.81
2023-01-19T17:11:17.568Z,98867.94
2023-01-19T17:13:44.011Z,98867.94
2023-01-19T17:16:10.682Z,98841.63
2023-01-19T17:18:37.828Z,98772.31
2023-01-19T17:21:09.578Z,98737.53
2023-01-19T17:23:36.969Z,98775.34
2023-01-19T17:26:04.908Z,98787.25
2023-01-19T17:28:31.365Z,98773.38
2023-01-19T17:31:04.966Z,98726.09
2023-01-19T17:33:31.457Z,98718.81
2023-01-19T17:36:03.457Z,98705.00
2023-01-19T17:38:29.888Z,98674.94
2023-01-19T17:40:56.371Z,98670.41
2023-01-19T17:43:22.820Z,98583.78
2023-01-19T17:45:49.283Z,98648.09
2023-01-19T17:48:16.010Z,98623.19
2023-01-19T17:50:42.456Z,98630.25
2023-01-19T17:53:09.140Z,98592.75
2023-01-19T17:55:36.273Z,98578.75
2023-01-19T17:58:03.263Z,98562.56
2023-01-19T18:00:29.957Z,98549.50
2023-01-19T18:02:56.450Z,98526.59
2023-01-19T18:05:23.317Z,98524.25
2023-01-19T18:07:49.782Z,98451.88
2023-01-19T18:10:16.854Z,98452.31
2023-01-19T18:12:43.529Z,98464.59
2023-01-19T18:15:10.378Z,98470.88
2023-01-19T18:17:36.869Z,98467.75
2023-01-19T18:20:03.841Z,98399.19
2023-01-19T18:22:30.359Z,98444.44
2023-01-19T18:24:56.953Z,98371.94
2023-01-19T18:27:23.440Z,98391.53
2023-01-19T18:29:50.361Z,98311.19
2023-01-19T18:32:16.909Z,98369.03
2023-01-19T18:34:43.427Z,98327.59
2023-01-19T18:37:09.871Z,98309.25
2023-01-19T18:39:36.330Z,98262.72
2023-01-19T18:42:02.810Z,98292.50
2023-01-19T18:44:29.300Z,98288.97
2023-01-19T18:46:55.799Z,98249.91
2023-01-19T18:49:22.802Z,98245.16
2023-01-19T18:51:49.255Z,98213.03
2023-01-19T18:54:15.695Z,98216.38
2023-01-19T18:56:42.161Z,98205.53
2023-01-19T18:59:08.557Z,98191.75
2023-01-19T19:01:35.163Z,98183.84
2023-01-19T19:04:02.106Z,98143.06
2023-01-19T19:06:28.605Z,98106.00
2023-01-19T19:08:57.375Z,98163.34
2023-01-19T19:11:24.873Z,98152.69
2023-01-19T19:13:53.441Z,98148.34
2023-01-19T19:16:19.924Z,98130.03
2023-01-19T19:18:46.364Z,98131.59
2023-01-19T19:21:13.050Z,98085.31
2023-01-19T19:23:39.545Z,98144.03
2023-01-19T19:26:08.425Z,98160.59
2023-01-19T19:28:39.709Z,98119.22
2023-01-19T19:31:09.106Z,98097.91
2023-01-19T19:33:37.639Z,98130.25
2023-01-19T19:36:05.623Z,98133.38
2023-01-19T19:38:32.468Z,98067.59
2023-01-19T19:41:04.155Z,98123.72
2023-01-19T19:43:34.782Z,98058.88
2023-01-19T19:46:04.246Z,98139.06
2023-01-19T19:48:30.832Z,98131.78
2023-01-19T19:51:17.025Z,98124.63
2023-01-19T19:53:45.046Z,98109.03
2023-01-19T19:56:13.029Z,98110.31
2023-01-19T19:58:40.692Z,98062.84
2023-01-19T20:01:19.110Z,98110.72
2023-01-19T20:03:45.968Z,98115.91
2023-01-19T20:06:15.269Z,98122.28
2023-01-19T20:08:41.939Z,98132.53
2023-01-19T20:11:14.903Z,98096.72
2023-01-19T20:13:43.064Z,98149.91
2023-01-19T20:16:15.910Z,98165.53
2023-01-19T20:18:44.120Z,98066.22
2023-01-19T20:21:18.928Z,98139.69
2023-01-19T20:24:09.747Z,98091.72
2023-01-19T20:26:40.667Z,98141.69
2023-01-19T20:29:07.409Z,98158.84
2023-01-19T20:31:37.706Z,98104.34
2023-01-19T20:34:06.740Z,98169.72
2023-01-19T20:36:33.565Z,98172.28
2023-01-19T20:39:00.120Z,98119.09
2023-01-19T20:41:27.101Z,98111.25
2023-01-19T20:43:54.200Z,98135.91
2023-01-19T20:46:20.669Z,98204.69
2023-01-19T20:48:47.117Z,98161.34
2023-01-19T20:51:13.656Z,98155.84
2023-01-19T20:53:41.369Z,98192.91
2023-01-19T20:56:11.829Z,98223.66
2023-01-19T20:58:39.027Z,98244.97
2023-01-19T21:01:17.661Z,98243.00
2023-01-19T21:03:44.545Z,98240.41
2023-01-19T21:06:12.091Z,98239.63
2023-01-19T21:08:38.808Z,98180.91
2023-01-19T21:11:06.331Z,98248.53
2023-01-19T21:13:33.913Z,98257.38
2023-01-19T21:16:00.876Z,98234.91
2023-01-19T21:18:27.396Z,98223.25
2023-01-19T21:20:55.104Z,98160.19
2023-01-19T21:23:21.538Z,98221.47
2023-01-19T21:25:49.970Z,98126.66
2023-01-19T21:28:17.589Z,98225.63
2023-01-19T21:30:44.261Z,98233.13
2023-01-19T21:33:10.810Z,98231.91
2023-01-19T21:35:38.231Z,98168.66
2023-01-19T21:38:07.565Z,98238.28
2023-01-19T21:40:33.977Z,98259.41
2023-01-19T21:43:00.385Z,98273.78
2023-01-19T21:45:26.867Z,98321.50
2023-01-19T21:47:53.431Z,98326.47
2023-01-19T21:50:19.956Z,98262.34
2023-01-19T21:52:46.422Z,98267.47
2023-01-19T21:55:12.991Z,98253.66
2023-01-19T21:57:39.549Z,98325.69
2023-01-19T22:00:06.888Z,98361.19
2023-01-19T22:02:38.585Z,98350.34
2023-01-19T22:05:05.829Z,98273.78
2023-01-19T22:07:32.460Z,98312.47
2023-01-19T22:09:58.974Z,98345.81
2023-01-19T22:12:25.440Z,98352.72
2023-01-19T22:14:52.440Z,98303.97
2023-01-19T22:17:18.997Z,98293.09
2023-01-19T22:19:45.453Z,98399.81
2023-01-19T22:22:11.928Z,98398.97
2023-01-19T22:24:38.467Z,98383.78
2023-01-19T22:27:04.899Z,98370.69
2023-01-19T22:29:31.332Z,98419.06
2023-01-19T22:31:57.840Z,98377.34
2023-01-19T22:34:24.355Z,98395.09
2023-01-19T22:36:50.867Z,98438.53
2023-01-19T22:39:17.538Z,98382.56
2023-01-19T22:41:45.835Z,98384.16
2023-01-19T22:44:17.937Z,98457.69
2023-01-19T22:46:44.691Z,98445.06
2023-01-19T22:49:13.647Z,98388.78
2023-01-19T22:51:40.110Z,98413.16
2023-01-19T22:54:06.734Z,98423.22
2023-01-19T22:56:35.543Z,98336.44
2023-01-19T22:59:02.921Z,97621.22
2023-01-19T23:01:33.217Z,97491.63
2023-01-19T23:04:01.350Z,97538.91
2023-01-19T23:06:30.495Z,97561.38
2023-01-19T23:08:59.846Z,97423.19
2023-01-19T23:11:29.886Z,97420.53
2023-01-19T23:13:58.196Z,97539.03
2023-01-19T23:16:25.245Z,97673.22
2023-01-19T23:18:56.813Z,97672.44
2023-01-19T23:21:25.750Z,97748.13
2023-01-19T23:24:00.622Z,97719.56
2023-01-19T23:26:28.176Z,97794.25
2023-01-19T23:28:56.432Z,97838.84
2023-01-19T23:31:24.848Z,97840.63
2023-01-19T23:33:53.524Z,97817.38
2023-01-19T23:36:21.815Z,97557.03
2023-01-19T23:38:50.661Z,97698.63
2023-01-19T23:41:17.963Z,97747.41
2023-01-19T23:43:44.558Z,97829.03
2023-01-19T23:46:12.151Z,97804.03
2023-01-19T23:48:39.042Z,97825.50
2023-01-19T23:51:07.819Z,97812.53
2023-01-19T23:53:34.682Z,97822.75
2023-01-19T23:56:11.137Z,97854.44
2023-01-19T23:58:38.070Z,97842.09
